Time;durP1;ratioP1;P1;durP2;ratioP2;P2;SDS_P1;SDS_P2;PMS_P1;PMS_P2;Temp;Humidity;BMP_temperature;BMP_pressure;BME280_temperature;BME280_humidity;BME280_pressure;Samples;Min_cycle;Max_cycle;Signal;HPM_P1;HPM_P2
2022/12/11 00:01:31;;;;;;;62.20;26.70;;;;;;;;;;5094923;28;20478;-71
2022/12/11 00:03:59;;;;;;;55.57;24.70;;;;;;;;;;5094777;28;20455;-70
2022/12/11 00:06:26;;;;;;;40.30;20.57;;;;;;;;;;5094695;28;20455;-70
2022/12/11 00:08:53;;;;;;;53.23;26.07;;;;;;;;;;5094577;28;20545;-70
2022/12/11 00:11:21;;;;;;;46.00;24.80;;;;;;;;;;5095087;28;20458;-70
2022/12/11 00:13:50;;;;;;;40.93;23.00;;;;;;;;;;5094082;28;20533;-70
2022/12/11 00:16:17;;;;;;;49.67;22.20;;;;;;;;;;5094506;28;20469;-70
2022/12/11 00:18:44;;;;;;;53.57;24.40;;;;;;;;;;5094623;28;20485;-70
2022/12/11 00:21:13;;;;;;;58.03;26.20;;;;;;;;;;5094700;28;20509;-70
2022/12/11 00:23:40;;;;;;;55.27;26.43;;;;;;;;;;5094599;28;20459;-70
2022/12/11 00:26:09;;;;;;;55.97;24.97;;;;;;;;;;5094463;28;20450;-70
2022/12/11 00:28:37;;;;;;;49.33;24.90;;;;;;;;;;5094240;28;20546;-70
2022/12/11 00:31:06;;;;;;;53.73;24.13;;;;;;;;;;5094372;28;20447;-70
2022/12/11 00:33:33;;;;;;;47.57;22.10;;;;;;;;;;5094133;28;20459;-70
2022/12/11 00:36:00;;;;;;;52.23;22.90;;;;;;;;;;5094628;28;20439;-70
2022/12/11 00:38:28;;;;;;;50.97;22.27;;;;;;;;;;5094106;28;20471;-70
2022/12/11 00:40:58;;;;;;;50.83;22.57;;;;;;;;;;5094155;28;20489;-70
2022/12/11 00:43:25;;;;;;;54.07;21.83;;;;;;;;;;5094248;28;20450;-70
2022/12/11 00:45:53;;;;;;;35.23;20.77;;;;;;;;;;5094126;28;20834;-70
2022/12/11 00:48:21;;;;;;;52.83;23.87;;;;;;;;;;5093932;28;20470;-70
2022/12/11 00:50:48;;;;;;;42.57;21.37;;;;;;;;;;5093649;28;20447;-70
2022/12/11 00:53:15;;;;;;;45.20;21.30;;;;;;;;;;5093870;28;20446;-70
2022/12/11 00:55:43;;;;;;;32.77;16.73;;;;;;;;;;5093610;28;20818;-71
2022/12/11 00:58:10;;;;;;;38.33;18.47;;;;;;;;;;5093979;28;20523;-70
2022/12/11 01:00:38;;;;;;;34.33;16.87;;;;;;;;;;5093870;28;20482;-70
2022/12/11 01:03:05;;;;;;;41.33;21.10;;;;;;;;;;5094038;28;20449;-70
2022/12/11 01:05:33;;;;;;;27.37;12.97;;;;;;;;;;5094064;28;20447;-70
2022/12/11 01:08:00;;;;;;;34.67;18.30;;;;;;;;;;5093871;28;20470;-70
2022/12/11 01:10:27;;;;;;;34.67;15.70;;;;;;;;;;5093558;28;20442;-70
2022/12/11 01:12:55;;;;;;;35.60;16.63;;;;;;;;;;5093428;28;20463;-70
2022/12/11 01:15:22;;;;;;;32.97;16.77;;;;;;;;;;5093244;28;20458;-70
2022/12/11 01:17:50;;;;;;;30.80;16.97;;;;;;;;;;5093163;28;20609;-70
2022/12/11 01:20:20;;;;;;;36.13;17.83;;;;;;;;;;5093512;28;20457;-70
2022/12/11 01:22:48;;;;;;;40.03;17.30;;;;;;;;;;5093151;28;20447;-70
2022/12/11 01:25:16;;;;;;;37.47;16.60;;;;;;;;;;5091614;28;20455;-70
2022/12/11 01:27:43;;;;;;;37.53;16.63;;;;;;;;;;5093160;28;20466;-70
2022/12/11 01:30:10;;;;;;;31.50;16.00;;;;;;;;;;5091704;28;20481;-70
2022/12/11 01:32:38;;;;;;;38.47;18.80;;;;;;;;;;5093389;28;20446;-70
2022/12/11 01:35:05;;;;;;;36.53;16.90;;;;;;;;;;5092453;28;20458;-70
2022/12/11 01:37:33;;;;;;;31.97;16.77;;;;;;;;;;5092868;28;20529;-70
2022/12/11 01:40:02;;;;;;;36.57;18.23;;;;;;;;;;5092949;28;20798;-70
2022/12/11 01:42:29;;;;;;;33.10;17.90;;;;;;;;;;5092880;28;20532;-70
2022/12/11 01:45:26;;;;;;;31.90;15.77;;;;;;;;;;5092228;28;20529;-70
2022/12/11 01:47:56;;;;;;;35.80;16.60;;;;;;;;;;5092814;28;20471;-70
2022/12/11 01:50:23;;;;;;;38.43;16.43;;;;;;;;;;5092785;28;20447;-70
2022/12/11 01:52:51;;;;;;;38.20;17.67;;;;;;;;;;5092800;28;20450;-70
2022/12/11 01:55:20;;;;;;;35.40;18.10;;;;;;;;;;5092106;28;20443;-70
2022/12/11 01:57:48;;;;;;;40.07;20.30;;;;;;;;;;5092620;28;20470;-70
2022/12/11 02:00:16;;;;;;;36.00;18.00;;;;;;;;;;5092768;28;20442;-71
2022/12/11 02:02:44;;;;;;;36.30;18.17;;;;;;;;;;5092705;28;21007;-70
2022/12/11 02:05:11;;;;;;;40.63;19.93;;;;;;;;;;5092277;28;20970;-70
2022/12/11 02:07:40;;;;;;;34.30;17.53;;;;;;;;;;5092333;28;20486;-70
2022/12/11 02:10:08;;;;;;;37.03;18.13;;;;;;;;;;5092907;28;20943;-70
2022/12/11 02:12:39;;;;;;;36.57;18.67;;;;;;;;;;5092660;28;20940;-70
2022/12/11 02:15:12;;;;;;;41.60;19.30;;;;;;;;;;5092311;28;20538;-71
2022/12/11 02:17:42;;;;;;;38.67;20.00;;;;;;;;;;5092513;28;20479;-70
2022/12/11 02:20:12;;;;;;;45.17;21.00;;;;;;;;;;5093032;28;20958;-70
2022/12/11 02:22:49;;;;;;;40.07;19.33;;;;;;;;;;5092821;28;20485;-70
2022/12/11 02:25:21;;;;;;;42.80;20.07;;;;;;;;;;5092010;28;20439;-70
2022/12/11 02:27:55;;;;;;;43.27;17.13;;;;;;;;;;5092718;28;20473;-70
2022/12/11 02:30:24;;;;;;;37.40;17.57;;;;;;;;;;5091100;28;20490;-70
2022/12/11 02:32:55;;;;;;;32.07;16.70;;;;;;;;;;5092603;28;21001;-70
2022/12/11 02:35:25;;;;;;;34.50;18.37;;;;;;;;;;5091937;28;20454;-70
2022/12/11 02:37:55;;;;;;;42.53;20.43;;;;;;;;;;5096037;28;20474;-70
2022/12/11 02:40:24;;;;;;;41.03;18.73;;;;;;;;;;5096355;28;20458;-70
2022/12/11 02:42:52;;;;;;;36.53;18.97;;;;;;;;;;5096100;28;20493;-70
2022/12/11 02:45:20;;;;;;;39.20;18.80;;;;;;;;;;5095863;28;20900;-70
2022/12/11 02:47:48;;;;;;;36.10;20.40;;;;;;;;;;5095869;28;20474;-70
2022/12/11 02:50:18;;;;;;;38.33;17.53;;;;;;;;;;5096283;28;20450;-71
2022/12/11 02:52:47;;;;;;;40.37;20.00;;;;;;;;;;5095961;28;20468;-71
2022/12/11 02:55:15;;;;;;;34.77;19.47;;;;;;;;;;5095727;28;20446;-70
2022/12/11 02:57:44;;;;;;;35.43;18.20;;;;;;;;;;5095628;28;20479;-71
2022/12/11 03:00:12;;;;;;;41.43;20.23;;;;;;;;;;5095950;28;20791;-70
2022/12/11 03:02:41;;;;;;;38.83;19.67;;;;;;;;;;5095735;28;20991;-70
2022/12/11 03:05:10;;;;;;;44.63;21.43;;;;;;;;;;5095100;28;20531;-70
2022/12/11 03:07:39;;;;;;;45.80;22.97;;;;;;;;;;5095674;28;20466;-71
2022/12/11 03:10:07;;;;;;;42.50;20.73;;;;;;;;;;5095677;28;20457;-70
2022/12/11 03:12:36;;;;;;;44.77;21.50;;;;;;;;;;5095641;28;20458;-70
2022/12/11 03:15:05;;;;;;;40.77;20.13;;;;;;;;;;5095109;28;20594;-70
2022/12/11 03:17:36;;;;;;;50.10;21.20;;;;;;;;;;5095399;28;20987;-70
2022/12/11 03:20:06;;;;;;;40.17;19.53;;;;;;;;;;5095316;28;20447;-71
2022/12/11 03:22:38;;;;;;;41.40;19.70;;;;;;;;;;5095425;28;20486;-72
2022/12/11 03:25:07;;;;;;;36.43;18.10;;;;;;;;;;5094862;28;20446;-70
2022/12/11 03:27:37;;;;;;;43.53;19.70;;;;;;;;;;5095430;28;20474;-71
2022/12/11 03:30:06;;;;;;;39.07;18.97;;;;;;;;;;5093374;28;20446;-71
2022/12/11 03:32:37;;;;;;;39.57;19.70;;;;;;;;;;5095356;28;20451;-71
2022/12/11 03:35:07;;;;;;;36.40;17.37;;;;;;;;;;5094819;28;20486;-70
2022/12/11 03:37:37;;;;;;;45.43;21.90;;;;;;;;;;5095294;28;20471;-71
2022/12/11 03:40:07;;;;;;;41.50;20.60;;;;;;;;;;5095200;28;20827;-71
2022/12/11 03:42:34;;;;;;;38.10;19.10;;;;;;;;;;5094895;28;20486;-70
2022/12/11 03:45:02;;;;;;;43.47;20.90;;;;;;;;;;5094667;28;20446;-70
2022/12/11 03:47:30;;;;;;;40.43;20.77;;;;;;;;;;5094143;28;20470;-70
2022/12/11 03:49:59;;;;;;;41.23;20.73;;;;;;;;;;5094895;28;20928;-70
2022/12/11 03:52:27;;;;;;;48.07;19.80;;;;;;;;;;5095011;28;20443;-70
2022/12/11 03:54:57;;;;;;;42.70;19.80;;;;;;;;;;5094070;28;20458;-70
2022/12/11 03:57:26;;;;;;;39.50;20.23;;;;;;;;;;5094760;28;20471;-70
2022/12/11 03:59:53;;;;;;;43.37;21.00;;;;;;;;;;5094765;28;20458;-70
2022/12/11 04:02:20;;;;;;;40.87;18.50;;;;;;;;;;5108049;28;20492;-70
2022/12/11 04:04:47;;;;;;;38.60;19.17;;;;;;;;;;5114426;28;20449;-70
2022/12/11 04:07:14;;;;;;;42.27;21.53;;;;;;;;;;5115197;28;20853;-70
2022/12/11 04:09:42;;;;;;;39.70;19.63;;;;;;;;;;5114808;28;20446;-71
2022/12/11 04:12:10;;;;;;;41.30;19.43;;;;;;;;;;5114906;28;20448;-71
2022/12/11 04:25:44;;;;;;;44.97;19.90;;;;;;;;;;5071404;28;20478;-70
2022/12/11 04:28:13;;;;;;;38.60;18.90;;;;;;;;;;5104059;28;20501;-70
2022/12/11 04:30:40;;;;;;;45.87;20.40;;;;;;;;;;5111692;28;20778;-70
2022/12/11 04:33:07;;;;;;;41.70;19.67;;;;;;;;;;5114888;28;20957;-70
2022/12/11 04:35:34;;;;;;;41.10;21.97;;;;;;;;;;5113729;27;20450;-70
2022/12/11 04:38:01;;;;;;;44.63;20.10;;;;;;;;;;5114214;28;20471;-70
2022/12/11 04:40:28;;;;;;;43.07;20.27;;;;;;;;;;5114409;28;20973;-71
2022/12/11 04:42:55;;;;;;;34.03;17.60;;;;;;;;;;5114031;28;20491;-70
2022/12/11 04:45:24;;;;;;;33.40;16.50;;;;;;;;;;5113692;28;20830;-71
2022/12/11 04:47:51;;;;;;;34.00;16.63;;;;;;;;;;5113976;28;20478;-70
2022/12/11 04:50:19;;;;;;;34.53;16.50;;;;;;;;;;5114246;28;20457;-70
2022/12/11 04:52:46;;;;;;;29.53;14.57;;;;;;;;;;5114104;28;20442;-70
2022/12/11 04:55:13;;;;;;;33.03;16.00;;;;;;;;;;5113548;28;20813;-71
2022/12/11 04:57:40;;;;;;;27.70;13.10;;;;;;;;;;5113886;28;20473;-70
2022/12/11 05:00:09;;;;;;;24.17;12.97;;;;;;;;;;5113898;28;20939;-70
2022/12/11 05:02:38;;;;;;;34.90;16.40;;;;;;;;;;5113737;28;20527;-70
2022/12/11 05:05:08;;;;;;;29.20;15.63;;;;;;;;;;5113440;28;20456;-70
2022/12/11 05:07:35;;;;;;;26.63;13.80;;;;;;;;;;5113811;28;20515;-70
2022/12/11 05:10:02;;;;;;;23.10;11.97;;;;;;;;;;5113870;28;20441;-71
2022/12/11 05:12:29;;;;;;;21.23;12.50;;;;;;;;;;5113812;28;20464;-71
2022/12/11 05:14:56;;;;;;;27.67;13.50;;;;;;;;;;5112898;28;20442;-70
2022/12/11 05:17:24;;;;;;;26.13;13.30;;;;;;;;;;5113576;28;20489;-70
2022/12/11 05:19:52;;;;;;;20.93;10.40;;;;;;;;;;5113595;28;20450;-70
2022/12/11 05:22:20;;;;;;;22.17;12.23;;;;;;;;;;5113519;28;20572;-71
2022/12/11 05:24:47;;;;;;;23.23;10.73;;;;;;;;;;5112761;28;20457;-70
2022/12/11 05:27:14;;;;;;;24.70;11.80;;;;;;;;;;5113635;28;21005;-70
2022/12/11 05:29:41;;;;;;;24.87;10.97;;;;;;;;;;5113336;28;20454;-71
2022/12/11 05:32:08;;;;;;;31.83;16.23;;;;;;;;;;5112617;28;20807;-70
2022/12/11 05:34:35;;;;;;;25.17;11.63;;;;;;;;;;5112707;28;20449;-70
2022/12/11 05:37:04;;;;;;;19.37;10.00;;;;;;;;;;5113397;28;20462;-70
2022/12/11 05:39:31;;;;;;;16.87;9.63;;;;;;;;;;5113422;28;20450;-70
2022/12/11 05:41:58;;;;;;;23.10;11.00;;;;;;;;;;5113372;28;20487;-70
2022/12/11 05:44:25;;;;;;;23.00;11.47;;;;;;;;;;5112729;28;20462;-70
2022/12/11 05:46:53;;;;;;;21.87;10.47;;;;;;;;;;5113170;28;20998;-70
2022/12/11 05:49:20;;;;;;;21.40;11.27;;;;;;;;;;5113278;28;20833;-70
2022/12/11 05:51:47;;;;;;;17.87;10.77;;;;;;;;;;5113058;28;20513;-70
2022/12/11 05:54:16;;;;;;;22.57;12.50;;;;;;;;;;5112561;28;20450;-70
2022/12/11 05:56:43;;;;;;;21.50;11.73;;;;;;;;;;5113107;28;20528;-70
2022/12/11 05:59:10;;;;;;;18.00;10.93;;;;;;;;;;5113263;28;20449;-71
2022/12/11 06:01:38;;;;;;;22.00;12.13;;;;;;;;;;5113185;28;20445;-70
2022/12/11 06:04:07;;;;;;;22.53;11.90;;;;;;;;;;5112345;28;20454;-70
2022/12/11 06:06:34;;;;;;;20.50;10.50;;;;;;;;;;5112916;28;20446;-70
2022/12/11 06:09:02;;;;;;;24.23;11.53;;;;;;;;;;5112996;28;20456;-70
2022/12/11 06:11:31;;;;;;;25.50;11.40;;;;;;;;;;5114724;28;20528;-73
2022/12/11 06:13:58;;;;;;;28.97;13.17;;;;;;;;;;5116637;28;20456;-69
2022/12/11 06:16:26;;;;;;;20.83;10.97;;;;;;;;;;5117237;28;20469;-69
2022/12/11 06:18:53;;;;;;;23.50;12.13;;;;;;;;;;5117048;28;20449;-70
2022/12/11 06:21:21;;;;;;;26.33;13.43;;;;;;;;;;5116929;28;20966;-71
2022/12/11 06:23:49;;;;;;;29.57;13.87;;;;;;;;;;5096485;28;20504;-71
2022/12/11 06:26:17;;;;;;;31.10;14.80;;;;;;;;;;5096701;28;20454;-69
2022/12/11 06:28:45;;;;;;;23.43;13.17;;;;;;;;;;5096328;28;20474;-70
2022/12/11 06:31:13;;;;;;;32.50;16.17;;;;;;;;;;5094145;28;20544;-70
2022/12/11 06:33:40;;;;;;;27.97;14.47;;;;;;;;;;5094031;28;20810;-70
2022/12/11 06:36:08;;;;;;;29.07;15.50;;;;;;;;;;5115584;27;20449;-70
2022/12/11 06:38:35;;;;;;;26.00;13.80;;;;;;;;;;5116152;28;20496;-71
2022/12/11 06:41:04;;;;;;;30.30;15.50;;;;;;;;;;5096728;28;20469;-70
2022/12/11 06:43:31;;;;;;;33.97;16.13;;;;;;;;;;5095202;28;20494;-70
2022/12/11 06:46:00;;;;;;;26.63;14.60;;;;;;;;;;5095400;28;20836;-70
2022/12/11 06:48:27;;;;;;;29.33;14.37;;;;;;;;;;5095955;28;20843;-70
2022/12/11 06:50:54;;;;;;;24.40;13.23;;;;;;;;;;5092387;28;20464;-69
2022/12/11 06:53:21;;;;;;;29.03;14.60;;;;;;;;;;5095230;28;20458;-73
2022/12/11 06:55:49;;;;;;;28.63;14.67;;;;;;;;;;5095080;28;20462;-69
2022/12/11 06:58:16;;;;;;;34.13;15.90;;;;;;;;;;5095867;28;20467;-70
2022/12/11 07:00:43;;;;;;;25.13;13.37;;;;;;;;;;5109273;28;21005;-69
2022/12/11 07:03:12;;;;;;;25.10;13.70;;;;;;;;;;5095469;28;20490;-69
2022/12/11 07:05:39;;;;;;;21.27;12.73;;;;;;;;;;5094542;28;20867;-73
2022/12/11 07:08:07;;;;;;;24.73;13.27;;;;;;;;;;5092199;28;20470;-70
2022/12/11 07:10:34;;;;;;;21.20;14.10;;;;;;;;;;5094227;28;20454;-70
2022/12/11 07:13:01;;;;;;;21.73;12.50;;;;;;;;;;5093823;28;20462;-70
2022/12/11 07:15:28;;;;;;;22.27;14.10;;;;;;;;;;5093344;28;20451;-70
2022/12/11 07:17:55;;;;;;;24.43;14.03;;;;;;;;;;5093617;28;20482;-69
2022/12/11 07:20:24;;;;;;;23.10;14.20;;;;;;;;;;5094391;28;20451;-70
2022/12/11 07:22:51;;;;;;;25.57;14.93;;;;;;;;;;5093599;28;20482;-69
2022/12/11 07:25:18;;;;;;;22.87;12.00;;;;;;;;;;5093640;28;20447;-69
2022/12/11 07:27:45;;;;;;;27.50;14.00;;;;;;;;;;5094211;28;20474;-69
2022/12/11 07:30:13;;;;;;;25.47;13.97;;;;;;;;;;5092706;28;20450;-69
2022/12/11 07:32:40;;;;;;;26.67;13.30;;;;;;;;;;5095053;28;20451;-69
2022/12/11 07:35:07;;;;;;;23.97;13.10;;;;;;;;;;5094733;28;20443;-69
2022/12/11 07:37:37;;;;;;;29.55;17.67;;;;;;;;;;5094322;28;20447;-69
2022/12/11 07:40:04;;;;;;;25.53;14.27;;;;;;;;;;5094926;28;20221;-69
2022/12/11 07:42:31;;;;;;;28.83;13.90;;;;;;;;;;5095057;28;20486;-69
2022/12/11 07:44:58;;;;;;;27.93;14.27;;;;;;;;;;5094393;28;20801;-69
2022/12/11 07:47:25;;;;;;;23.73;13.73;;;;;;;;;;5095073;28;20466;-69
2022/12/11 07:49:53;;;;;;;27.10;14.10;;;;;;;;;;5094934;28;20829;-69
2022/12/11 07:52:20;;;;;;;26.50;15.60;;;;;;;;;;5095083;28;20813;-69
2022/12/11 07:54:48;;;;;;;20.47;12.47;;;;;;;;;;5094126;28;20469;-70
2022/12/11 07:57:15;;;;;;;25.27;13.77;;;;;;;;;;5094683;28;20471;-69
2022/12/11 07:59:42;;;;;;;22.13;12.60;;;;;;;;;;5094835;28;20459;-69
2022/12/11 08:02:10;;;;;;;25.03;13.43;;;;;;;;;;5094434;28;20469;-70
2022/12/11 08:04:37;;;;;;;24.63;14.20;;;;;;;;;;5094046;28;20857;-69
2022/12/11 08:07:04;;;;;;;26.87;13.97;;;;;;;;;;5094632;28;20466;-69
2022/12/11 08:09:32;;;;;;;23.43;12.97;;;;;;;;;;5094634;28;20454;-69
2022/12/11 08:12:00;;;;;;;21.77;11.97;;;;;;;;;;5094579;28;20454;-69
2022/12/11 08:14:27;;;;;;;25.63;13.97;;;;;;;;;;5093798;28;20541;-69
2022/12/11 08:16:56;;;;;;;24.50;13.30;;;;;;;;;;5094281;28;20572;-71
2022/12/11 08:19:23;;;;;;;24.97;13.57;;;;;;;;;;5094608;28;20547;-69
2022/12/11 08:21:50;;;;;;;28.47;14.57;;;;;;;;;;5094251;28;20450;-69
2022/12/11 08:24:19;;;;;;;22.13;11.90;;;;;;;;;;5093644;28;20486;-69
2022/12/11 08:26:47;;;;;;;27.53;13.50;;;;;;;;;;5094170;28;20451;-69
2022/12/11 08:29:15;;;;;;;25.50;12.90;;;;;;;;;;5094153;28;20442;-69
2022/12/11 08:31:42;;;;;;;27.43;13.33;;;;;;;;;;5091998;28;20473;-69
2022/12/11 08:34:12;;;;;;;21.83;12.30;;;;;;;;;;5092856;28;20457;-69
2022/12/11 08:36:39;;;;;;;22.13;11.57;;;;;;;;;;5093957;28;20512;-69
2022/12/11 08:39:06;;;;;;;23.20;12.90;;;;;;;;;;5094706;28;20451;-69
2022/12/11 08:41:34;;;;;;;23.13;14.43;;;;;;;;;;5094079;28;20446;-69
2022/12/11 08:44:01;;;;;;;23.83;13.40;;;;;;;;;;5093342;28;20498;-69
2022/12/11 08:46:30;;;;;;;25.10;13.40;;;;;;;;;;5093743;28;20825;-70
2022/12/11 08:48:58;;;;;;;24.70;12.67;;;;;;;;;;5093686;28;20453;-70
2022/12/11 08:51:26;;;;;;;21.43;12.40;;;;;;;;;;5094178;28;20450;-69
2022/12/11 08:53:55;;;;;;;22.53;12.17;;;;;;;;;;5093019;28;20811;-69
2022/12/11 08:56:22;;;;;;;26.60;12.57;;;;;;;;;;5093657;28;20454;-69
2022/12/11 08:58:50;;;;;;;26.90;13.03;;;;;;;;;;5093431;28;20524;-69
2022/12/11 09:01:20;;;;;;;25.90;13.70;;;;;;;;;;5093673;28;20541;-70
2022/12/11 09:03:48;;;;;;;22.90;11.53;;;;;;;;;;5092831;28;21025;-70
2022/12/11 09:06:16;;;;;;;22.23;12.03;;;;;;;;;;5093765;28;20442;-70
2022/12/11 09:08:44;;;;;;;22.60;11.60;;;;;;;;;;5093294;28;20474;-71
2022/12/11 09:11:12;;;;;;;20.57;12.03;;;;;;;;;;5093394;28;20451;-71
2022/12/11 09:13:40;;;;;;;26.10;12.37;;;;;;;;;;5092785;28;20547;-71
2022/12/11 09:16:09;;;;;;;23.83;12.73;;;;;;;;;;5093164;28;20567;-71
2022/12/11 09:18:36;;;;;;;21.80;12.10;;;;;;;;;;5093222;28;20470;-71
2022/12/11 09:21:06;;;;;;;23.30;12.47;;;;;;;;;;5093409;28;20451;-70
2022/12/11 09:23:33;;;;;;;19.13;11.40;;;;;;;;;;5093052;28;21014;-72
2022/12/11 09:26:01;;;;;;;21.83;11.40;;;;;;;;;;5093050;28;20457;-71
2022/12/11 09:28:28;;;;;;;21.50;11.47;;;;;;;;;;5093049;28;20959;-71
2022/12/11 09:30:55;;;;;;;17.10;11.17;;;;;;;;;;5090400;28;20451;-71
2022/12/11 09:33:22;;;;;;;19.47;11.23;;;;;;;;;;5093161;28;20457;-72
2022/12/11 09:35:57;;;;;;;28.67;15.37;;;;;;;;;;5092614;28;20454;-71
2022/12/11 09:38:26;;;;;;;22.57;13.30;;;;;;;;;;5093082;28;20465;-71
2022/12/11 09:40:53;;;;;;;22.67;12.13;;;;;;;;;;5092721;28;20456;-72
2022/12/11 09:43:28;;;;;;;24.90;12.73;;;;;;;;;;5093032;28;20489;-71
2022/12/11 09:45:56;;;;;;;31.73;15.57;;;;;;;;;;5092070;28;20458;-71
2022/12/11 09:48:24;;;;;;;30.63;15.00;;;;;;;;;;5092829;28;20466;-71
2022/12/11 09:50:52;;;;;;;26.63;13.93;;;;;;;;;;5093111;28;20939;-71
2022/12/11 09:53:22;;;;;;;26.50;14.80;;;;;;;;;;5092698;28;20453;-71
2022/12/11 09:55:54;;;;;;;23.40;13.07;;;;;;;;;;5092236;28;20461;-70
2022/12/11 09:58:24;;;;;;;23.10;13.60;;;;;;;;;;5092690;28;20843;-71
2022/12/11 10:00:56;;;;;;;25.27;13.43;;;;;;;;;;5092722;28;20455;-70
2022/12/11 10:03:39;;;;;;;25.73;13.60;;;;;;;;;;5092611;28;20496;-71
2022/12/11 10:06:12;;;;;;;18.73;10.47;;;;;;;;;;5092574;28;20466;-71
2022/12/11 10:08:42;;;;;;;21.00;11.37;;;;;;;;;;5092584;28;20478;-71
2022/12/11 10:11:21;;;;;;;25.63;15.57;;;;;;;;;;5092722;28;20956;-71
2022/12/11 10:13:51;;;;;;;29.97;14.40;;;;;;;;;;5091974;28;20451;-70
2022/12/11 10:16:21;;;;;;;22.87;12.97;;;;;;;;;;5092483;28;20550;-71
2022/12/11 10:18:49;;;;;;;26.87;13.07;;;;;;;;;;5092414;28;20466;-70
2022/12/11 10:21:17;;;;;;;29.10;14.67;;;;;;;;;;5092797;28;20447;-71
2022/12/11 10:23:46;;;;;;;21.43;12.77;;;;;;;;;;5091909;28;20858;-71
2022/12/11 10:26:17;;;;;;;22.60;13.87;;;;;;;;;;5092592;28;20454;-70
2022/12/11 10:28:44;;;;;;;22.47;13.10;;;;;;;;;;5092211;28;20979;-70
2022/12/11 10:31:17;;;;;;;26.63;13.97;;;;;;;;;;5090298;28;20463;-71
2022/12/11 10:33:50;;;;;;;22.27;12.53;;;;;;;;;;5092038;28;20538;-71
2022/12/11 10:36:19;;;;;;;29.17;16.00;;;;;;;;;;5092524;28;20458;-70
2022/12/11 10:38:47;;;;;;;24.00;12.90;;;;;;;;;;5092495;28;20834;-71
2022/12/11 10:41:18;;;;;;;20.70;11.37;;;;;;;;;;5092464;28;20951;-70
2022/12/11 10:43:46;;;;;;;27.30;14.20;;;;;;;;;;5091585;28;20518;-71
2022/12/11 10:46:16;;;;;;;18.87;11.07;;;;;;;;;;5092437;28;20972;-70
2022/12/11 10:48:46;;;;;;;25.77;12.60;;;;;;;;;;5092084;28;20997;-71
2022/12/11 10:51:13;;;;;;;25.83;13.67;;;;;;;;;;5092346;28;20460;-70
2022/12/11 10:53:42;;;;;;;21.57;13.67;;;;;;;;;;5091505;28;20450;-70
2022/12/11 10:56:09;;;;;;;23.13;13.30;;;;;;;;;;5092238;28;20454;-71
2022/12/11 10:58:40;;;;;;;24.97;14.90;;;;;;;;;;5095343;28;20462;-71
2022/12/11 11:01:09;;;;;;;27.97;12.77;;;;;;;;;;5095953;28;20453;-70
2022/12/11 11:03:39;;;;;;;26.00;12.43;;;;;;;;;;5095217;28;20486;-71
2022/12/11 11:06:06;;;;;;;24.30;14.00;;;;;;;;;;5095823;28;20447;-70
2022/12/11 11:08:40;;;;;;;24.70;13.70;;;;;;;;;;5095823;28;20824;-71
2022/12/11 11:11:07;;;;;;;30.40;14.23;;;;;;;;;;5095942;28;20454;-70
2022/12/11 11:13:35;;;;;;;24.23;12.00;;;;;;;;;;5095529;28;20465;-71
2022/12/11 11:16:05;;;;;;;24.97;14.00;;;;;;;;;;5095907;28;20454;-70
2022/12/11 11:18:33;;;;;;;26.97;14.40;;;;;;;;;;5095919;28;20477;-70
2022/12/11 11:21:00;;;;;;;23.57;13.70;;;;;;;;;;5096056;28;20513;-70
2022/12/11 11:23:28;;;;;;;27.33;14.00;;;;;;;;;;5095634;28;20808;-73
2022/12/11 11:25:56;;;;;;;31.70;14.33;;;;;;;;;;5095548;28;20450;-70
2022/12/11 11:28:26;;;;;;;23.60;13.50;;;;;;;;;;5095548;28;20550;-70
2022/12/11 11:30:57;;;;;;;20.03;11.83;;;;;;;;;;5095144;28;20457;-70
2022/12/11 11:33:26;;;;;;;19.07;11.67;;;;;;;;;;5095462;28;20441;-71
2022/12/11 11:35:54;;;;;;;19.13;11.80;;;;;;;;;;5095568;28;20462;-70
2022/12/11 11:38:23;;;;;;;20.90;11.10;;;;;;;;;;5095535;28;20471;-70
2022/12/11 11:40:55;;;;;;;19.03;11.43;;;;;;;;;;5095471;28;20450;-70
2022/12/11 11:43:28;;;;;;;24.73;13.50;;;;;;;;;;5095546;28;20550;-71
2022/12/11 11:45:58;;;;;;;20.57;11.40;;;;;;;;;;5095367;28;20427;-70
2022/12/11 11:48:32;;;;;;;20.63;10.10;;;;;;;;;;5095987;28;20833;-70
2022/12/11 11:51:02;;;;;;;16.53;10.73;;;;;;;;;;5095462;28;20883;-70
2022/12/11 11:53:31;;;;;;;18.50;11.33;;;;;;;;;;5094805;28;20461;-70
2022/12/11 11:56:02;;;;;;;19.53;10.00;;;;;;;;;;5095124;28;20809;-70
2022/12/11 11:58:37;;;;;;;27.17;15.40;;;;;;;;;;5095034;28;20475;-70
2022/12/11 12:01:04;;;;;;;21.20;11.80;;;;;;;;;;5095275;28;20445;-70
2022/12/11 12:03:33;;;;;;;19.73;13.07;;;;;;;;;;5094817;28;20952;-70
2022/12/11 12:06:05;;;;;;;18.70;11.50;;;;;;;;;;5095173;28;20465;-70
2022/12/11 12:08:38;;;;;;;42.03;21.70;;;;;;;;;;5094189;28;20474;-69
2022/12/11 12:11:07;;;;;;;28.63;16.07;;;;;;;;;;5095298;28;21002;-69
2022/12/11 12:13:40;;;;;;;23.77;14.50;;;;;;;;;;5094807;28;20453;-69
2022/12/11 12:16:12;;;;;;;22.50;13.33;;;;;;;;;;5094616;28;20458;-69
2022/12/11 12:18:44;;;;;;;20.27;11.73;;;;;;;;;;5094710;28;20548;-69
2022/12/11 12:21:17;;;;;;;22.73;13.87;;;;;;;;;;5095056;28;20445;-69
2022/12/11 12:23:52;;;;;;;34.53;17.87;;;;;;;;;;5094700;28;20435;-70
2022/12/11 12:26:24;;;;;;;89.00;35.97;;;;;;;;;;5094919;28;20441;-69
2022/12/11 12:28:55;;;;;;;29.10;15.10;;;;;;;;;;5094522;28;20467;-69
2022/12/11 12:31:29;;;;;;;26.37;13.43;;;;;;;;;;5093234;28;20812;-69
2022/12/11 12:34:03;;;;;;;28.77;14.37;;;;;;;;;;5093613;28;20450;-70
2022/12/11 12:36:35;;;;;;;25.63;11.97;;;;;;;;;;5094507;28;20462;-70
2022/12/11 12:39:03;;;;;;;28.83;12.63;;;;;;;;;;5094295;28;20430;-70
2022/12/11 12:41:35;;;;;;;22.10;12.57;;;;;;;;;;5094400;28;20842;-70
2022/12/11 12:44:10;;;;;;;19.93;12.50;;;;;;;;;;5094190;28;20829;-71
2022/12/11 12:46:44;;;;;;;23.77;12.83;;;;;;;;;;5094051;28;20434;-70
2022/12/11 12:49:15;;;;;;;25.77;14.30;;;;;;;;;;5094611;28;20931;-70
2022/12/11 12:51:43;;;;;;;22.17;12.63;;;;;;;;;;5094321;28;20846;-70
2022/12/11 12:54:12;;;;;;;19.47;11.93;;;;;;;;;;5094246;28;20915;-71
2022/12/11 12:56:42;;;;;;;21.17;11.40;;;;;;;;;;5094155;28;20450;-71
2022/12/11 12:59:18;;;;;;;18.40;10.53;;;;;;;;;;5094573;28;20547;-70
2022/12/11 13:01:48;;;;;;;20.20;12.20;;;;;;;;;;5093954;28;20449;-70
2022/12/11 13:04:28;;;;;;;20.53;11.53;;;;;;;;;;5093815;28;20551;-70
2022/12/11 13:06:55;;;;;;;24.97;13.97;;;;;;;;;;5094175;28;20972;-70
2022/12/11 13:09:24;;;;;;;19.77;11.83;;;;;;;;;;5094226;28;20523;-70
2022/12/11 13:11:55;;;;;;;23.40;12.30;;;;;;;;;;5093956;28;20458;-70
2022/12/11 13:14:26;;;;;;;24.07;11.63;;;;;;;;;;5093848;28;20438;-70
2022/12/11 13:17:05;;;;;;;19.77;12.00;;;;;;;;;;5093648;28;20483;-70
2022/12/11 13:19:34;;;;;;;19.00;11.30;;;;;;;;;;5094076;28;20435;-70
2022/12/11 13:22:05;;;;;;;21.17;12.13;;;;;;;;;;5093916;28;20447;-70
2022/12/11 13:24:33;;;;;;;25.87;13.70;;;;;;;;;;5093568;28;20486;-70
2022/12/11 13:27:09;;;;;;;19.47;10.83;;;;;;;;;;5093403;28;20504;-70
2022/12/11 13:29:37;;;;;;;16.53;10.53;;;;;;;;;;5093745;28;20900;-70
2022/12/11 13:32:20;;;;;;;17.70;11.40;;;;;;;;;;5092581;28;20445;-70
2022/12/11 13:34:53;;;;;;;23.87;11.90;;;;;;;;;;5092578;28;20451;-70
2022/12/11 13:37:24;;;;;;;18.93;11.17;;;;;;;;;;5093157;28;20550;-70
2022/12/11 13:39:52;;;;;;;16.20;9.97;;;;;;;;;;5093255;28;20453;-70
2022/12/11 13:42:22;;;;;;;17.00;9.67;;;;;;;;;;5093262;28;20458;-71
2022/12/11 13:44:49;;;;;;;19.80;10.60;;;;;;;;;;5092592;28;20482;-70
2022/12/11 13:47:18;;;;;;;23.00;11.80;;;;;;;;;;5093154;28;20471;-70
2022/12/11 13:49:47;;;;;;;23.10;11.87;;;;;;;;;;5093185;28;20450;-70
2022/12/11 13:52:18;;;;;;;17.00;10.80;;;;;;;;;;5093449;28;20455;-70
2022/12/11 13:54:48;;;;;;;22.80;11.93;;;;;;;;;;5092798;28;20807;-71
2022/12/11 13:57:16;;;;;;;15.93;11.00;;;;;;;;;;5093000;28;20875;-71
2022/12/11 13:59:47;;;;;;;25.80;15.17;;;;;;;;;;5092909;28;20461;-71
2022/12/11 14:02:16;;;;;;;20.70;11.93;;;;;;;;;;5093274;28;20480;-70
2022/12/11 14:04:43;;;;;;;21.53;14.20;;;;;;;;;;5092550;28;21006;-70
2022/12/11 14:07:11;;;;;;;26.73;12.70;;;;;;;;;;5092932;28;20477;-70
2022/12/11 14:09:43;;;;;;;28.40;13.77;;;;;;;;;;5092801;28;20451;-71
2022/12/11 14:12:16;;;;;;;18.37;9.40;;;;;;;;;;5092659;28;20467;-70
2022/12/11 14:14:46;;;;;;;25.10;13.00;;;;;;;;;;5092240;28;20477;-70
2022/12/11 14:17:14;;;;;;;19.13;11.23;;;;;;;;;;5092479;28;20494;-71
2022/12/11 14:19:46;;;;;;;18.53;12.40;;;;;;;;;;5092509;28;20507;-71
2022/12/11 14:22:18;;;;;;;16.43;10.87;;;;;;;;;;5092632;28;20454;-71
2022/12/11 14:24:50;;;;;;;20.07;10.03;;;;;;;;;;5092176;28;20493;-71
2022/12/11 14:27:18;;;;;;;23.90;14.33;;;;;;;;;;5092978;28;20470;-70
2022/12/11 14:29:45;;;;;;;23.93;12.53;;;;;;;;;;5092738;28;20454;-70
2022/12/11 14:32:17;;;;;;;25.87;13.37;;;;;;;;;;5093826;28;20456;-70
2022/12/11 14:34:46;;;;;;;25.70;14.50;;;;;;;;;;5096587;28;20545;-71
2022/12/11 14:37:14;;;;;;;36.93;15.23;;;;;;;;;;5096810;28;20466;-70